Time;durP1;ratioP1;P1;durP2;ratioP2;P2;SDS_P1;SDS_P2;PMS_P1;PMS_P2;Temp;Humidity;BMP_temperature;BMP_pressure;BME280_temperature;BME280_humidity;BME280_pressure;Samples;Min_cycle;Max_cycle;Signal;HPM_P1;HPM_P2
2023/02/06 00:01:18;;;;;;;1.75;0.20;;;;;;;-1.88;70.80;103395.03;5047698;28;20052;-79
2023/02/06 00:03:45;;;;;;;1.67;0.40;;;;;;;-1.89;70.32;103390.66;5054548;28;20132;-79
2023/02/06 00:06:12;;;;;;;2.53;0.30;;;;;;;-1.89;70.62;103389.78;5070832;28;20060;-79
2023/02/06 00:08:39;;;;;;;3.22;0.30;;;;;;;-1.89;70.87;103382.97;5060899;28;20044;-79
2023/02/06 00:11:09;;;;;;;1.80;0.20;;;;;;;-1.89;70.45;103379.53;5061304;28;20059;-79
2023/02/06 00:13:37;;;;;;;5.30;0.30;;;;;;;-1.89;70.86;103382.09;5060260;28;20049;-79
2023/02/06 00:16:08;;;;;;;1.90;0.20;;;;;;;-1.91;70.59;103381.97;5061077;28;20305;-79
2023/02/06 00:18:35;;;;;;;0.50;0.25;;;;;;;-1.92;70.53;103375.06;5062830;28;20122;-79
2023/02/06 00:21:02;;;;;;;2.55;0.30;;;;;;;-1.90;70.89;103390.56;5067135;28;20041;-80
2023/02/06 00:23:28;;;;;;;3.55;0.60;;;;;;;-1.91;70.51;103397.34;5064700;28;20053;-79
2023/02/06 00:25:55;;;;;;;5.07;0.30;;;;;;;-1.92;70.58;103389.56;5060441;28;20041;-78
2023/02/06 00:28:23;;;;;;;1.02;0.20;;;;;;;-1.92;70.78;103399.78;5064019;28;20503;-79
2023/02/06 00:30:50;;;;;;;0.70;0.20;;;;;;;-1.92;70.53;103410.03;5065551;28;20036;-79
2023/02/06 00:33:17;;;;;;;0.52;0.20;;;;;;;-1.95;70.19;103391.88;5068210;28;20045;-78
2023/02/06 00:35:44;;;;;;;2.97;0.30;;;;;;;-1.94;70.49;103397.09;5066050;28;20045;-79
2023/02/06 00:38:11;;;;;;;1.35;0.20;;;;;;;-1.98;70.77;103399.34;5064701;28;20045;-79
2023/02/06 00:40:39;;;;;;;0.90;0.20;;;;;;;-1.95;70.18;103410.72;5060698;28;20036;-79
2023/02/06 00:43:06;;;;;;;3.85;0.20;;;;;;;-1.96;70.32;103425.97;5063095;28;20136;-79
2023/02/06 00:45:34;;;;;;;3.15;0.20;;;;;;;-1.97;70.61;103422.50;5065729;28;20717;-79
2023/02/06 00:48:01;;;;;;;2.42;0.38;;;;;;;-1.96;70.36;103433.66;5064095;28;20059;-79
2023/02/06 00:50:28;;;;;;;5.47;0.20;;;;;;;-1.98;70.42;103425.84;5061355;28;20053;-79
2023/02/06 00:52:55;;;;;;;3.42;0.20;;;;;;;-1.99;70.21;103438.53;5058964;28;20059;-79
2023/02/06 00:55:22;;;;;;;4.32;0.28;;;;;;;-2.00;70.68;103442.75;5063684;28;20037;-79
2023/02/06 00:57:48;;;;;;;0.43;0.20;;;;;;;-2.01;70.50;103441.00;5066101;28;20048;-79
2023/02/06 01:00:16;;;;;;;2.38;0.30;;;;;;;-2.02;70.27;103446.91;5061743;28;20043;-79
2023/02/06 01:02:44;;;;;;;1.50;0.30;;;;;;;-2.02;70.32;103454.59;5058203;28;20099;-79
2023/02/06 01:05:11;;;;;;;2.60;0.35;;;;;;;-2.03;70.71;103453.66;5073635;28;20058;-79
2023/02/06 01:07:39;;;;;;;0.17;0.10;;;;;;;-2.02;70.67;103459.72;5063242;28;20045;-79
2023/02/06 01:10:08;;;;;;;2.55;0.28;;;;;;;-2.06;70.62;103462.78;5068044;28;20049;-79
2023/02/06 01:12:35;;;;;;;4.10;0.20;;;;;;;-2.07;70.25;103466.13;5063943;28;21077;-79
2023/02/06 01:15:02;;;;;;;0.50;0.10;;;;;;;-2.05;70.41;103469.69;5066554;28;20699;-80
2023/02/06 01:17:30;;;;;;;4.43;1.42;;;;;;;-2.03;70.59;103469.03;5064710;28;20794;-80
2023/02/06 01:19:59;;;;;;;2.00;0.20;;;;;;;-2.04;70.59;103462.13;5059056;28;20132;-78
2023/02/06 01:22:26;;;;;;;2.38;0.10;;;;;;;-2.04;70.57;103463.81;5060360;28;20041;-79
2023/02/06 01:24:53;;;;;;;0.35;0.20;;;;;;;-2.06;70.51;103467.91;5058760;28;20045;-78
2023/02/06 01:27:20;;;;;;;2.72;0.20;;;;;;;-2.04;70.49;103463.81;5063995;28;20049;-79
2023/02/06 01:29:47;;;;;;;1.23;0.22;;;;;;;-2.08;70.17;103452.44;5066767;28;20052;-79
2023/02/06 01:32:14;;;;;;;0.50;0.10;;;;;;;-2.03;70.54;103468.16;5056439;28;20051;-79
2023/02/06 01:34:41;;;;;;;5.78;0.10;;;;;;;-2.04;70.61;103458.69;5058213;28;20045;-79
2023/02/06 01:37:09;;;;;;;1.75;0.20;;;;;;;-2.06;70.50;103450.88;5058577;28;20055;-80
2023/02/06 01:39:36;;;;;;;1.30;0.20;;;;;;;-2.05;70.11;103464.56;5062311;28;20048;-79
2023/02/06 01:42:03;;;;;;;0.80;0.20;;;;;;;-2.13;70.13;103448.63;5059441;28;20658;-79
2023/02/06 01:44:32;;;;;;;1.05;0.20;;;;;;;-2.03;70.27;103466.47;5061408;28;20048;-79
2023/02/06 01:46:59;;;;;;;1.58;0.20;;;;;;;-2.04;70.63;103464.69;5059838;28;20053;-78
2023/02/06 01:49:30;;;;;;;4.05;0.17;;;;;;;-2.13;70.02;103442.63;5065806;28;20041;-79
2023/02/06 01:52:02;;;;;;;0.75;0.10;;;;;;;-2.04;69.79;103477.50;5061298;28;20056;-79
2023/02/06 01:54:31;;;;;;;2.08;0.17;;;;;;;-2.03;69.96;103465.59;5063258;28;20049;-79
2023/02/06 01:57:02;;;;;;;2.50;0.20;;;;;;;-2.04;69.84;103446.78;5057702;28;20045;-79
2023/02/06 01:59:29;;;;;;;5.43;0.20;;;;;;;-2.04;70.32;103446.78;5062411;28;20052;-79
2023/02/06 02:01:56;;;;;;;0.50;0.10;;;;;;;-2.05;70.43;103450.13;5058701;28;20048;-79
2023/02/06 02:04:26;;;;;;;1.77;0.20;;;;;;;-2.04;70.46;103454.44;5064434;28;20060;-79
2023/02/06 02:07:07;;;;;;;1.70;0.70;;;;;;;-2.07;70.31;103454.22;5063961;28;20054;-79
2023/02/06 02:09:35;;;;;;;1.27;0.20;;;;;;;-2.04;70.15;103466.38;5058090;28;20053;-79
2023/02/06 02:12:02;;;;;;;1.95;0.10;;;;;;;-2.05;70.08;103465.47;5067706;28;20045;-79
2023/02/06 02:14:30;;;;;;;1.85;0.20;;;;;;;-2.05;70.06;103465.47;5055544;28;20055;-79
2023/02/06 02:17:09;;;;;;;1.55;0.20;;;;;;;-2.05;69.79;103477.38;5059236;28;20052;-79
2023/02/06 02:20:14;;;;;;;2.28;0.20;;;;;;;-2.06;70.21;103466.25;5059847;28;20405;-79
2023/02/06 02:22:51;;;;;;;0.77;0.30;;;;;;;-2.06;69.61;103468.81;5060327;28;20045;-79
2023/02/06 02:25:47;;;;;;;0.40;0.10;;;;;;;-2.10;69.69;103463.34;5054449;28;20041;-79
2023/02/06 02:28:56;;;;;;;3.17;0.20;;;;;;;-2.06;69.95;103479.03;5002784;28;20048;-79
2023/02/06 02:31:53;;;;;;;2.63;0.20;;;;;;;-2.08;69.63;103475.50;4977324;28;20039;-79
2023/02/06 02:35:07;;;;;;;4.10;0.20;;;;;;;-2.09;70.04;103478.81;4981517;28;20043;-79
2023/02/06 02:37:43;;;;;;;2.05;0.10;;;;;;;-2.13;69.93;103476.81;5057948;28;20044;-79
2023/02/06 02:40:19;;;;;;;1.63;0.30;;;;;;;-2.07;69.75;103490.06;5063794;28;20052;-79
2023/02/06 02:42:49;;;;;;;;;;;;;;;-2.07;69.68;103491.75;5071357;28;20044;-79
2023/02/06 02:45:21;;;;;;;6.05;0.10;;;;;;;-2.08;69.99;103495.06;5058788;28;19924;-78
2023/02/06 02:47:57;;;;;;;1.20;0.10;;;;;;;-2.08;69.66;103493.44;5068810;28;20048;-78
2023/02/06 02:50:25;;;;;;;0.60;0.20;;;;;;;-2.09;69.92;103493.28;5065994;28;20139;-79
2023/02/06 02:52:53;;;;;;;8.98;0.30;;;;;;;-2.09;69.64;103493.28;5064654;28;20047;-79
2023/02/06 02:55:22;;;;;;;4.35;0.20;;;;;;;-2.12;69.77;103488.81;5069093;28;20404;-79
2023/02/06 02:57:53;;;;;;;3.70;0.20;;;;;;;-2.10;70.05;103489.84;5061801;28;20416;-79
2023/02/06 03:00:22;;;;;;;0.30;0.10;;;;;;;-2.30;69.56;103462.72;5079460;28;20055;-79
2023/02/06 03:02:51;;;;;;;2.70;0.30;;;;;;;-2.11;69.67;103497.41;5063608;28;20044;-79
2023/02/06 03:05:23;;;;;;;2.45;0.08;;;;;;;-2.17;69.83;103500.38;5062784;28;20413;-79
2023/02/06 03:08:02;;;;;;;6.75;0.52;;;;;;;-2.10;69.70;103501.75;5058844;28;20053;-79
2023/02/06 03:10:36;;;;;;;4.93;0.30;;;;;;;-2.14;69.38;103495.50;5061789;28;20036;-79
2023/02/06 03:13:10;;;;;;;4.63;0.20;;;;;;;-2.15;69.66;103488.59;5079240;28;20049;-79
2023/02/06 03:15:45;;;;;;;1.70;0.20;;;;;;;-2.15;69.38;103488.59;5069343;28;20037;-79
2023/02/06 03:18:16;;;;;;;1.45;0.20;;;;;;;-2.15;69.60;103498.84;5067179;28;20052;-79
2023/02/06 03:20:46;;;;;;;3.78;0.20;;;;;;;-2.19;69.48;103490.78;5065391;28;20055;-79
2023/02/06 03:23:19;;;;;;;3.03;0.65;;;;;;;-2.18;69.30;103490.91;5072729;28;20048;-79
2023/02/06 03:25:51;;;;;;;3.90;0.20;;;;;;;-2.19;69.40;103485.66;5056535;28;20043;-79
2023/02/06 03:28:22;;;;;;;0.73;0.10;;;;;;;-2.22;69.55;103485.44;5061981;28;20050;-79
2023/02/06 03:30:53;;;;;;;4.22;0.47;;;;;;;-2.24;69.61;103487.00;5064571;28;20056;-79
2023/02/06 03:33:26;;;;;;;6.05;0.20;;;;;;;-2.24;69.32;103487.88;5060889;28;20052;-79
2023/02/06 03:35:55;;;;;;;5.78;0.13;;;;;;;-2.25;69.08;103496.31;5061492;28;20132;-79
2023/02/06 03:38:24;;;;;;;1.55;0.13;;;;;;;-2.26;69.21;103497.13;5051751;28;20471;-79
2023/02/06 03:40:53;;;;;;;2.05;0.10;;;;;;;-2.28;69.40;103514.94;5059466;28;20045;-79
2023/02/06 03:43:22;;;;;;;2.85;0.20;;;;;;;-2.29;69.40;103518.25;5057176;28;20489;-79
2023/02/06 03:45:54;;;;;;;1.88;0.20;;;;;;;-2.31;69.51;103522.34;5060792;28;20517;-79
2023/02/06 03:48:27;;;;;;;3.92;0.10;;;;;;;-2.31;69.63;103531.69;5070965;28;20048;-79
2023/02/06 03:50:56;;;;;;;0.43;0.20;;;;;;;-2.32;69.20;103529.91;5053111;28;20049;-79
2023/02/06 03:53:26;;;;;;;3.50;0.10;;;;;;;-2.33;69.04;103529.03;5064157;28;20045;-79
2023/02/06 03:55:57;;;;;;;7.20;0.20;;;;;;;-2.35;69.38;103529.69;5050635;28;20044;-79
2023/02/06 03:58:25;;;;;;;3.00;0.40;;;;;;;-2.36;69.34;103535.56;5059869;28;20045;-71
2023/02/06 04:00:52;;;;;;;4.63;0.10;;;;;;;-2.39;69.27;103537.88;5054426;28;20049;-71
2023/02/06 04:03:20;;;;;;;4.10;0.30;;;;;;;-2.41;69.21;103544.56;5051372;28;20110;-72
2023/02/06 04:05:47;;;;;;;4.60;0.35;;;;;;;-2.42;69.04;103553.00;5056714;28;20053;-71
2023/02/06 04:08:14;;;;;;;1.25;0.20;;;;;;;-2.44;69.38;103558.00;5057059;28;20056;-70
2023/02/06 04:10:42;;;;;;;0.80;0.17;;;;;;;-2.43;69.58;103564.03;5055236;28;21656;-71
2023/02/06 04:13:09;;;;;;;2.45;0.10;;;;;;;-2.44;69.21;103575.03;5052042;28;20045;-72
2023/02/06 04:15:36;;;;;;;1.70;0.20;;;;;;;-2.46;69.18;103582.59;5059871;28;20037;-72
2023/02/06 04:18:03;;;;;;;0.68;0.20;;;;;;;-2.49;68.93;103580.66;5055998;28;20489;-73
2023/02/06 04:20:30;;;;;;;5.07;0.45;;;;;;;-2.49;69.26;103582.34;5056328;28;20145;-71
2023/02/06 04:22:57;;;;;;;1.80;0.10;;;;;;;-2.51;69.14;103583.88;5059755;28;20059;-72
2023/02/06 04:25:25;;;;;;;5.25;0.30;;;;;;;-2.53;69.05;103580.31;5056263;28;20055;-71
2023/02/06 04:27:53;;;;;;;0.57;0.20;;;;;;;-2.53;69.30;103580.31;5060572;28;20063;-72
2023/02/06 04:30:20;;;;;;;4.70;0.40;;;;;;;-2.55;69.05;103572.50;5058498;28;20416;-72
2023/02/06 04:32:47;;;;;;;1.35;0.50;;;;;;;-2.56;68.92;103569.81;5054957;28;20408;-72
2023/02/06 04:35:13;;;;;;;5.05;0.35;;;;;;;-2.56;69.05;103564.69;5061621;28;20055;-72
2023/02/06 04:37:40;;;;;;;3.70;0.30;;;;;;;-2.60;69.08;103555.88;5057359;28;20045;-71
2023/02/06 04:40:08;;;;;;;2.92;0.17;;;;;;;-2.61;69.38;103549.00;5060408;28;20123;-71
2023/02/06 04:42:34;;;;;;;3.35;0.10;;;;;;;-2.62;69.10;103554.91;5060585;28;20045;-71
2023/02/06 04:45:03;;;;;;;2.45;0.60;;;;;;;-2.64;69.25;103556.44;5062753;28;20053;-71
2023/02/06 04:47:30;;;;;;;6.03;0.30;;;;;;;-2.66;69.03;103555.41;5059359;28;20427;-72
2023/02/06 04:49:56;;;;;;;4.22;0.20;;;;;;;-2.66;69.08;103546.84;5055755;28;20044;-71
2023/02/06 04:52:23;;;;;;;3.13;0.40;;;;;;;-2.68;69.33;103546.69;5054935;28;20056;-71
2023/02/06 04:54:50;;;;;;;1.20;0.28;;;;;;;-2.68;69.13;103554.38;5057564;28;20413;-72
2023/02/06 04:57:17;;;;;;;3.50;0.30;;;;;;;-2.69;69.04;103550.03;5060897;28;20045;-72
2023/02/06 04:59:44;;;;;;;5.28;0.30;;;;;;;-2.71;69.25;103554.13;5064772;28;20055;-72
2023/02/06 05:02:12;;;;;;;1.17;0.22;;;;;;;-2.74;68.96;103535.97;5059248;28;20151;-72
2023/02/06 05:04:39;;;;;;;1.05;0.17;;;;;;;-2.73;69.08;103541.25;5056922;28;20062;-71
2023/02/06 05:07:06;;;;;;;3.72;0.32;;;;;;;-2.73;69.06;103542.91;5061083;28;20048;-71
2023/02/06 05:09:33;;;;;;;2.35;0.30;;;;;;;-2.78;69.33;103534.84;5060229;28;20040;-71
2023/02/06 05:12:00;;;;;;;2.25;0.28;;;;;;;-2.74;69.11;103554.78;5053736;28;20057;-72
2023/02/06 05:14:27;;;;;;;2.65;1.02;;;;;;;-2.77;68.95;103559.66;5053905;28;20064;-72
2023/02/06 05:16:53;;;;;;;2.65;0.20;;;;;;;-2.78;69.26;103537.41;5064831;28;20049;-72
2023/02/06 05:19:22;;;;;;;2.60;0.30;;;;;;;-2.77;69.24;103540.84;5059881;28;20045;-72
2023/02/06 05:21:49;;;;;;;1.17;0.20;;;;;;;-2.78;69.18;103549.31;5056879;28;20484;-72
2023/02/06 05:24:15;;;;;;;1.67;0.17;;;;;;;-2.79;69.17;103539.84;5057227;28;20055;-71
2023/02/06 05:26:43;;;;;;;4.00;0.40;;;;;;;-2.80;68.89;103559.41;5057105;28;20055;-71
2023/02/06 05:29:10;;;;;;;4.30;0.20;;;;;;;-2.85;69.15;103558.13;5059567;28;20045;-72
2023/02/06 05:31:37;;;;;;;2.65;0.52;;;;;;;-2.81;69.22;103577.22;5057010;28;20087;-72
2023/02/06 05:34:04;;;;;;;2.88;0.40;;;;;;;-2.86;69.26;103574.25;5054923;28;20048;-72
2023/02/06 05:36:32;;;;;;;2.08;0.20;;;;;;;-2.83;69.08;103587.31;5055352;28;20046;-71
2023/02/06 05:38:59;;;;;;;5.57;0.50;;;;;;;-2.84;69.08;103577.84;5052280;28;20059;-71
2023/02/06 05:41:26;;;;;;;7.45;0.20;;;;;;;-2.85;69.18;103582.81;5056222;28;20046;-71
2023/02/06 05:43:53;;;;;;;2.75;0.17;;;;;;;-2.95;69.05;103566.75;5053049;28;20421;-71
2023/02/06 05:46:19;;;;;;;2.53;0.38;;;;;;;-2.86;69.23;103593.84;5057450;28;20051;-71
2023/02/06 05:48:46;;;;;;;3.92;0.20;;;;;;;-2.88;68.72;103600.47;5057458;28;20056;-73
2023/02/06 05:51:13;;;;;;;6.05;0.20;;;;;;;-2.89;69.20;103608.94;5061254;28;20408;-72
2023/02/06 05:53:41;;;;;;;5.35;0.40;;;;;;;-2.89;69.26;103621.72;5059155;28;20066;-73
2023/02/06 05:56:08;;;;;;;1.83;0.50;;;;;;;-2.89;69.14;103625.19;5061056;28;20053;-73
2023/02/06 05:58:35;;;;;;;3.83;0.20;;;;;;;-2.90;68.94;103618.28;5055958;28;20044;-73
2023/02/06 06:01:02;;;;;;;3.88;0.30;;;;;;;-2.90;69.02;103617.34;5064818;28;20070;-73
2023/02/06 06:03:29;;;;;;;3.38;0.90;;;;;;;-2.91;69.18;103606.25;5058688;28;20488;-72
2023/02/06 06:05:56;;;;;;;0.32;0.10;;;;;;;-2.92;68.88;103607.03;5055860;28;20052;-72
2023/02/06 06:08:22;;;;;;;4.00;1.00;;;;;;;-2.94;68.94;103606.88;5053815;28;20055;-72
2023/02/06 06:10:52;;;;;;;1.85;0.32;;;;;;;-2.94;69.25;103601.75;5056894;28;20045;-72
2023/02/06 06:13:19;;;;;;;7.05;0.57;;;;;;;-2.95;69.07;103604.22;5059074;28;20052;-72
2023/02/06 06:15:46;;;;;;;2.78;0.30;;;;;;;-2.96;69.07;103611.00;5059064;28;20578;-73
2023/02/06 06:18:12;;;;;;;3.58;0.32;;;;;;;-2.98;69.26;103617.63;5057762;28;20037;-72
2023/02/06 06:20:39;;;;;;;6.65;0.30;;;;;;;-3.01;69.10;103607.16;5057869;28;20413;-72
2023/02/06 06:23:06;;;;;;;5.68;0.15;;;;;;;-3.06;68.82;103605.88;5054566;28;20059;-72
2023/02/06 06:25:35;;;;;;;5.43;0.30;;;;;;;-3.04;69.31;103622.25;5053587;28;20051;-73
2023/02/06 06:28:03;;;;;;;4.13;0.20;;;;;;;-3.07;69.01;103624.56;5061267;28;20508;-73
2023/02/06 06:30:30;;;;;;;1.70;0.20;;;;;;;-3.07;68.88;103622.00;5057676;28;20044;-73
2023/02/06 06:32:57;;;;;;;3.03;0.30;;;;;;;-3.07;69.01;103619.44;5055026;28;20059;-73
2023/02/06 06:35:24;;;;;;;2.65;0.20;;;;;;;-3.08;69.29;103632.97;5043353;28;20055;-73
2023/02/06 06:37:51;;;;;;;3.38;0.20;;;;;;;-3.07;69.08;103633.91;5056832;28;20048;-72
2023/02/06 06:40:18;;;;;;;4.90;0.13;;;;;;;-3.09;69.07;103641.44;5057158;28;20398;-73
2023/02/06 06:42:45;;;;;;;2.80;0.30;;;;;;;-3.09;69.10;103636.31;5053958;28;20043;-73
2023/02/06 06:45:13;;;;;;;1.63;0.20;;;;;;;-3.08;69.20;103638.09;5061318;28;20053;-72
2023/02/06 06:47:40;;;;;;;5.20;0.30;;;;;;;-3.10;69.09;103636.19;5055733;28;20040;-73
2023/02/06 06:50:08;;;;;;;6.28;1.27;;;;;;;-3.08;69.30;103637.22;5059567;28;20064;-73
2023/02/06 06:52:35;;;;;;;3.60;0.52;;;;;;;-3.08;69.24;103632.97;5058880;28;20040;-74
2023/02/06 06:55:01;;;;;;;3.55;0.10;;;;;;;-3.10;69.22;103629.44;5060106;28;20049;-74
2023/02/06 06:57:30;;;;;;;2.67;1.10;;;;;;;-3.08;69.19;103627.88;5058752;28;20044;-74
2023/02/06 06:59:57;;;;;;;3.17;0.28;;;;;;;-3.11;69.15;103626.72;5056569;28;20090;-74
2023/02/06 07:02:27;;;;;;;6.72;0.30;;;;;;;-3.09;69.19;103626.09;5056354;28;20399;-73
2023/02/06 07:04:54;;;;;;;4.90;0.40;;;;;;;-3.09;69.25;103641.44;5053527;28;20147;-73
2023/02/06 07:07:21;;;;;;;2.20;0.20;;;;;;;-3.09;69.21;103646.53;5053288;28;20416;-75
2023/02/06 07:09:47;;;;;;;4.10;0.20;;;;;;;-3.10;69.12;103649.88;5060271;28;20519;-75
2023/02/06 07:12:14;;;;;;;10.60;0.40;;;;;;;-3.18;68.98;103640.66;5053140;28;20436;-73
2023/02/06 07:14:41;;;;;;;6.65;0.55;;;;;;;-3.09;69.24;103653.31;5057520;28;20041;-73
2023/02/06 07:17:08;;;;;;;2.75;0.30;;;;;;;-3.09;69.10;103649.09;5052518;28;20049;-73
2023/02/06 07:19:36;;;;;;;3.92;0.20;;;;;;;-3.09;69.22;103646.53;5055983;28;20045;-73
2023/02/06 07:22:03;;;;;;;4.70;0.55;;;;;;;-3.08;69.00;103648.31;5055981;28;20048;-73
2023/02/06 07:24:30;;;;;;;3.67;0.30;;;;;;;-3.09;69.10;103646.53;5058043;28;20472;-73
2023/02/06 07:26:57;;;;;;;4.43;0.30;;;;;;;-3.08;68.92;103644.88;5054702;28;20522;-73
2023/02/06 07:29:24;;;;;;;2.10;0.20;;;;;;;-3.07;69.00;103657.81;5055349;28;20060;-73
2023/02/06 07:31:51;;;;;;;5.82;0.57;;;;;;;-3.07;69.30;103665.47;5051559;28;20166;-74
2023/02/06 07:34:18;;;;;;;3.63;1.05;;;;;;;-3.06;68.93;103674.94;5055905;28;20063;-73
2023/02/06 07:36:46;;;;;;;8.50;0.32;;;;;;;-3.06;69.25;103676.59;5055298;28;20041;-73
2023/02/06 07:39:13;;;;;;;6.63;0.70;;;;;;;-3.07;69.15;103673.16;5055762;28;20049;-73
2023/02/06 07:41:40;;;;;;;4.15;0.60;;;;;;;-3.05;69.19;103681.81;5053976;28;20044;-73
2023/02/06 07:44:07;;;;;;;0.68;0.20;;;;;;;-3.05;69.28;103688.59;5057615;28;20049;-73
2023/02/06 07:46:34;;;;;;;3.70;0.30;;;;;;;-3.04;69.09;103691.31;5056437;28;20041;-73
2023/02/06 07:49:01;;;;;;;5.05;0.57;;;;;;;-3.12;68.92;103689.75;5053948;28;20045;-73
2023/02/06 07:51:28;;;;;;;3.20;0.40;;;;;;;-3.06;69.04;103689.38;5053060;28;20052;-73
2023/02/06 07:53:56;;;;;;;7.88;0.77;;;;;;;-3.01;69.25;103695.78;5048137;28;20056;-72
2023/02/06 07:56:24;;;;;;;3.42;0.30;;;;;;;-3.02;69.33;103684.63;5055540;28;20040;-72
2023/02/06 07:58:52;;;;;;;3.50;0.20;;;;;;;-3.02;69.00;103692.31;5054550;28;20047;-71
2023/02/06 08:01:19;;;;;;;4.18;0.20;;;;;;;-3.00;69.15;103689.88;5055299;28;20092;-70
2023/02/06 08:03:49;;;;;;;6.97;0.65;;;;;;;-2.99;69.26;103691.66;5054746;28;20049;-69
2023/02/06 08:06:17;;;;;;;2.08;0.30;;;;;;;-2.98;69.17;103706.25;5055901;28;20049;-70
2023/02/06 08:08:44;;;;;;;6.32;0.73;;;;;;;-2.98;69.35;103699.47;5059327;28;20041;-70
2023/02/06 08:11:14;;;;;;;3.55;0.65;;;;;;;-2.96;69.09;103699.59;5059172;28;20385;-70
2023/02/06 08:13:41;;;;;;;3.25;0.30;;;;;;;-2.96;69.34;103691.91;5057731;28;20095;-70
2023/02/06 08:16:11;;;;;;;6.30;0.55;;;;;;;-3.00;69.33;103683.09;5058679;28;20496;-70
2023/02/06 08:18:38;;;;;;;9.85;0.68;;;;;;;-2.99;69.15;103687.47;5056213;28;20039;-70
2023/02/06 08:21:06;;;;;;;1.52;0.30;;;;;;;-2.90;69.23;103696.66;5062608;28;20044;-70
2023/02/06 08:23:33;;;;;;;10.40;1.50;;;;;;;-2.86;69.25;103706.38;5060511;28;20052;-70
2023/02/06 08:26:05;;;;;;;7.28;0.30;;;;;;;-2.85;69.45;103700.50;5061157;28;20412;-70
2023/02/06 08:28:34;;;;;;;8.60;0.40;;;;;;;-2.81;69.28;103705.13;5059706;28;20074;-71
2023/02/06 08:31:02;;;;;;;11.60;1.38;;;;;;;-2.79;69.20;103699.38;5059409;28;20049;-71
2023/02/06 08:33:28;;;;;;;1.27;0.20;;;;;;;-2.74;69.41;103699.72;5058259;28;20456;-71
2023/02/06 08:35:55;;;;;;;4.22;0.55;;;;;;;-2.69;69.39;103706.13;5060651;28;20139;-72
2023/02/06 08:38:22;;;;;;;4.53;0.30;;;;;;;-2.67;69.32;103707.16;5060014;28;20047;-72
2023/02/06 08:40:49;;;;;;;4.60;0.40;;;;;;;-2.63;69.14;103698.06;5060809;28;20044;-72
2023/02/06 08:43:16;;;;;;;6.28;0.93;;;;;;;-2.58;69.24;103691.66;5056566;28;20059;-73
2023/02/06 08:45:48;;;;;;;4.93;0.45;;;;;;;-2.57;69.52;103696.88;5058031;28;20493;-73
2023/02/06 08:48:15;;;;;;;3.92;0.40;;;;;;;-2.51;68.98;103697.38;5058945;28;20045;-73
2023/02/06 08:50:42;;;;;;;6.03;0.40;;;;;;;-2.46;69.37;103696.88;5061409;28;20043;-72
2023/02/06 08:53:09;;;;;;;3.50;0.25;;;;;;;-2.41;69.17;103700.72;5056260;28;20049;-72
2023/02/06 08:55:36;;;;;;;8.73;0.30;;;;;;;-2.37;69.24;103710.41;5055834;28;20041;-71
2023/02/06 08:58:04;;;;;;;1.23;0.20;;;;;;;-2.31;69.43;103716.03;5060700;28;20049;-76
2023/02/06 09:00:31;;;;;;;8.52;0.77;;;;;;;-2.27;69.51;103700.16;5059835;28;20045;-74
2023/02/06 09:02:59;;;;;;;4.93;0.40;;;;;;;-2.21;69.19;103697.22;5058772;28;20041;-74
2023/02/06 09:05:26;;;;;;;7.50;0.30;;;;;;;-2.19;69.05;103693.09;5056935;28;20504;-74
2023/02/06 09:07:54;;;;;;;7.82;0.80;;;;;;;-2.21;68.70;103686.97;5060184;28;20053;-74
2023/02/06 09:10:20;;;;;;;5.57;0.35;;;;;;;-2.06;68.93;103712.13;5057475;28;20412;-74
2023/02/06 09:12:47;;;;;;;5.78;0.63;;;;;;;-2.00;69.26;103718.50;5065610;28;20048;-75
2023/02/06 09:15:14;;;;;;;7.53;0.45;;;;;;;-1.97;69.25;103721.31;5058257;28;20045;-74
2023/02/06 09:17:41;;;;;;;4.13;0.68;;;;;;;-1.93;68.63;103720.81;5056435;28;20051;-74
2023/02/06 09:20:10;;;;;;;9.00;0.30;;;;;;;-1.89;69.26;103713.47;5055527;28;20055;-75
2023/02/06 09:22:37;;;;;;;1.13;0.20;;;;;;;-1.85;68.65;103697.59;5060170;28;20044;-74
2023/02/06 09:25:04;;;;;;;7.32;0.65;;;;;;;-1.80;68.68;103692.81;5061578;28;20400;-73
2023/02/06 09:27:31;;;;;;;5.57;0.30;;;;;;;-1.75;68.86;103696.63;5058879;28;20098;-74
2023/02/06 09:29:57;;;;;;;7.50;0.50;;;;;;;-1.70;68.97;103700.44;5058311;28;20507;-74
2023/02/06 09:32:24;;;;;;;6.15;0.52;;;;;;;-1.64;68.72;103700.03;5057897;28;20094;-74
2023/02/06 09:34:51;;;;;;;2.80;0.60;;;;;;;-1.60;68.43;103691.81;5058528;28;21377;-74
2023/02/06 09:37:20;;;;;;;5.95;0.25;;;;;;;-1.54;68.79;103691.38;5060514;28;20073;-73
2023/02/06 09:39:47;;;;;;;3.03;0.32;;;;;;;-1.50;68.68;103691.75;5059753;28;20036;-75
2023/02/06 09:42:19;;;;;;;3.17;0.20;;;;;;;-1.44;68.78;103683.66;5058803;28;20048;-73
2023/02/06 09:44:50;;;;;;;3.53;0.60;;;;;;;-1.43;68.88;103688.88;5058905;28;20454;-75
2023/02/06 09:47:26;;;;;;;8.60;0.55;;;;;;;-1.36;68.74;103688.59;5057230;28;20492;-74
2023/02/06 09:49:57;;;;;;;7.82;0.45;;;;;;;-1.31;68.37;103682.91;5063843;28;20058;-77
2023/02/06 09:52:54;;;;;;;3.78;0.40;;;;;;;-1.26;68.43;103681.59;5062357;28;20052;-77
2023/02/06 09:55:30;;;;;;;4.93;0.35;;;;;;;-1.22;67.96;103670.81;5061835;28;20063;-76
2023/02/06 09:58:06;;;;;;;6.65;0.20;;;;;;;-1.19;68.16;103661.66;5059364;28;20075;-79
2023/02/06 10:00:41;;;;;;;4.28;0.30;;;;;;;-1.14;68.13;103652.66;5059139;28;20045;-76
2023/02/06 10:03:42;;;;;;;1.98;0.30;;;;;;;-1.09;68.38;103642.72;5058731;28;20048;-76
2023/02/06 10:06:17;;;;;;;3.88;0.30;;;;;;;-1.05;68.45;103643.84;5058020;28;20045;-76
2023/02/06 10:08:48;;;;;;;;;;;;;;;-1.01;68.56;103648.44;5061252;28;20049;-77
2023/02/06 10:11:20;;;;;;;11.13;0.80;;;;;;;-0.98;67.77;103648.66;5059568;28;19920;-76
2023/02/06 10:13:53;;;;;;;9.02;0.50;;;;;;;-0.95;68.27;103654.03;5037461;28;20051;-76
2023/02/06 10:16:33;;;;;;;2.75;0.30;;;;;;;-0.90;67.85;103650.13;5063923;28;20044;-76
2023/02/06 10:19:05;;;;;;;2.22;0.30;;;;;;;-0.85;68.16;103647.88;5060141;28;20044;-76
2023/02/06 10:21:36;;;;;;;7.40;1.27;;;;;;;-0.95;68.68;103625.78;5059554;28;20049;-76
2023/02/06 10:24:11;;;;;;;2.88;0.73;;;;;;;-0.89;68.12;103633.94;5057639;28;20078;-78
2023/02/06 10:26:40;;;;;;;4.78;0.75;;;;;;;-0.74;68.14;103659.84;5061957;28;20401;-76
2023/02/06 10:29:15;;;;;;;8.85;0.50;;;;;;;-0.69;68.24;103661.97;5060843;28;20052;-76
2023/02/06 10:31:53;;;;;;;3.60;0.30;;;;;;;-0.65;68.27;103657.97;5057340;28;20579;-77
2023/02/06 10:34:42;;;;;;;8.48;0.57;;;;;;;-0.62;67.79;103652.19;5058285;28;20480;-77
2023/02/06 10:37:24;;;;;;;5.13;0.90;;;;;;;-0.57;67.68;103656.88;5054762;28;20052;-77
2023/02/06 10:40:15;;;;;;;3.35;0.82;;;;;;;-0.53;68.02;103648.59;5061026;28;20409;-76
2023/02/06 10:42:51;;;;;;;6.47;0.50;;;;;;;-0.48;68.06;103659.22;5059338;28;20511;-76
2023/02/06 10:45:32;;;;;;;8.65;0.57;;;;;;;-0.43;67.93;103656.97;5057253;28;20058;-77
2023/02/06 10:48:04;;;;;;;3.05;0.40;;;;;;;-0.40;67.78;103652.94;5055158;28;20401;-78
2023/02/06 10:50:36;;;;;;;10.70;0.55;;;;;;;-0.36;68.05;103652.41;5063775;28;20044;-76
2023/02/06 10:53:11;;;;;;;2.60;0.30;;;;;;;-0.32;67.80;103650.94;5054686;28;20507;-76
2023/02/06 10:55:45;;;;;;;12.88;2.25;;;;;;;-0.40;67.49;103629.81;5066330;28;20048;-76
2023/02/06 10:58:16;;;;;;;5.32;0.50;;;;;;;-0.26;68.12;103638.53;5054229;28;20037;-76
2023/02/06 11:00:45;;;;;;;5.75;0.57;;;;;;;-0.28;67.53;103641.00;5057483;28;20054;-80
2023/02/06 11:03:21;;;;;;;11.85;0.80;;;;;;;-0.19;67.91;103647.59;5053451;28;20496;-83
2023/02/06 11:05:49;;;;;;;8.52;1.67;;;;;;;-0.16;67.80;103640.09;5062753;28;20045;-83
2023/02/06 11:08:22;;;;;;;7.22;1.13;;;;;;;-0.12;67.45;103648.13;5057220;28;20382;-83
2023/02/06 11:10:50;;;;;;;7.45;0.70;;;;;;;-0.09;67.28;103644.88;5060452;28;20049;-83
2023/02/06 11:13:26;;;;;;;7.70;1.02;;;;;;;-0.07;67.42;103638.19;5066096;28;20044;-83
2023/02/06 11:16:01;;;;;;;7.10;0.45;;;;;;;-0.07;67.58;103627.91;5065212;28;20056;-83
2023/02/06 11:18:33;;;;;;;4.35;0.55;;;;;;;0.01;67.16;103634.47;5074423;28;20045;-82
2023/02/06 11:21:00;;;;;;;4.38;0.40;;;;;;;-0.03;67.91;103624.75;5076182;28;20412;-82
2023/02/06 11:23:29;;;;;;;7.00;0.60;;;;;;;0.07;67.58;103641.72;5064371;28;20044;-83
2023/02/06 11:26:12;;;;;;;7.75;1.27;;;;;;;0.01;67.56;103623.31;5068840;28;20051;-83
2023/02/06 11:28:51;;;;;;;5.80;0.47;;;;;;;0.14;67.21;103637.13;5064351;28;20076;-82
2023/02/06 11:31:20;;;;;;;8.10;1.23;;;;;;;0.16;67.19;103640.69;5060947;28;20262;-82
2023/02/06 11:33:51;;;;;;;5.30;1.00;;;;;;;0.19;66.76;103638.31;5069395;28;20047;-82
2023/02/06 11:36:26;;;;;;;6.45;0.73;;;;;;;0.21;66.85;103639.34;5059388;28;20063;-82
2023/02/06 11:38:59;;;;;;;8.93;0.40;;;;;;;0.25;66.80;103636.97;5060965;28;20055;-82